Terminal Aerodrome Forecast
Issued by NWS

Home | Current Version | Previous Version | Text Only | Print | Product List | Glossary On
Versions: 1 2 3 4 5 6 7 8 9 10 11 12 13 14 15 16
000
FTUS41 KBTV 231120
TAFMPV
TAF
KMPV 231120Z 2312/2412 17005KT P6SM SCT250
     FM231700 17010G18KT P6SM SCT250
     FM232100 17009KT P6SM SCT025
     FM240100 16007KT P6SM BKN025
     FM240500 15007KT 6SM BR BKN018=

USA.gov is the U.S. government's official web portal to all federal, state and local government web resources and services.